createdAt,value
2023-04-04T00:02:03.963Z,2.83
2023-04-04T00:07:05.646Z,2.80
2023-04-04T00:12:07.496Z,2.30
2023-04-04T00:17:09.129Z,2.92
2023-04-04T00:22:10.762Z,3.15
2023-04-04T00:27:12.366Z,2.40
2023-04-04T00:32:14.171Z,2.55
2023-04-04T00:37:15.811Z,3.17
2023-04-04T00:42:18.077Z,2.70
2023-04-04T00:47:24.677Z,2.67
2023-04-04T00:52:27.271Z,2.25
2023-04-04T00:57:29.989Z,2.50
2023-04-04T01:02:31.959Z,3.03
2023-04-04T01:07:37.116Z,3.10
2023-04-04T01:12:40.574Z,3.40
2023-04-04T01:17:43.649Z,2.88
2023-04-04T01:22:49.318Z,2.97
2023-04-04T01:27:52.231Z,2.67
2023-04-04T01:33:33.860Z,2.30
2023-04-04T01:38:58.585Z,3.03
2023-04-04T01:44:02.252Z,2.28
2023-04-04T01:49:04.130Z,3.13
2023-04-04T01:54:09.222Z,2.65
2023-04-04T01:59:11.495Z,2.22
2023-04-04T02:04:14.550Z,2.67
2023-04-04T02:09:16.270Z,2.78
2023-04-04T02:14:18.065Z,3.35
2023-04-04T02:19:20.662Z,3.08
2023-04-04T02:24:22.571Z,2.78
2023-04-04T02:29:24.231Z,2.47
2023-04-04T02:34:25.847Z,2.97
2023-04-04T02:39:27.956Z,2.60
2023-04-04T02:44:30.500Z,2.55
2023-04-04T02:49:32.627Z,2.22
2023-04-04T02:54:34.399Z,2.72
2023-04-04T02:59:38.014Z,2.90
2023-04-04T03:04:39.631Z,3.42
2023-04-04T03:09:45.123Z,3.33
2023-04-04T03:14:46.958Z,2.92
2023-04-04T03:19:49.053Z,2.92
2023-04-04T03:24:51.269Z,2.55
2023-04-04T03:29:54.360Z,3.13
2023-04-04T03:34:56.601Z,3.55
2023-04-04T03:39:58.208Z,2.95
2023-04-04T03:44:59.869Z,2.78
2023-04-04T03:50:06.835Z,3.08
2023-04-04T03:55:11.370Z,3.00
2023-04-04T04:00:13.298Z,2.78
2023-04-04T04:05:14.858Z,2.90
2023-04-04T04:10:17.086Z,2.75
2023-04-04T04:15:18.787Z,2.85
2023-04-04T04:20:21.423Z,2.55
2023-04-04T04:25:27.079Z,3.03
2023-04-04T04:30:39.803Z,4.28
2023-04-04T04:35:42.224Z,3.50
2023-04-04T04:40:44.522Z,3.33
2023-04-04T04:45:53.028Z,3.97
2023-04-04T04:50:54.665Z,2.70
2023-04-04T04:56:12.106Z,3.47
2023-04-04T05:01:17.815Z,3.47
2023-04-04T05:06:19.648Z,3.28
2023-04-04T05:11:21.908Z,2.85
2023-04-04T05:16:23.783Z,3.05
2023-04-04T05:21:28.076Z,3.05
2023-04-04T05:26:31.512Z,3.25
2023-04-04T05:31:33.337Z,3.38
2023-04-04T05:36:40.263Z,2.72
2023-04-04T05:41:41.983Z,3.40
2023-04-04T05:46:48.823Z,3.28
2023-04-04T05:51:51.101Z,3.38
2023-04-04T05:56:54.089Z,2.90
2023-04-04T06:02:18.690Z,3.45
2023-04-04T06:07:31.431Z,3.00
2023-04-04T06:12:33.186Z,3.17
2023-04-04T06:17:35.774Z,2.95
2023-04-04T06:22:37.559Z,3.03
2023-04-04T06:27:40.289Z,2.72
2023-04-04T06:32:43.042Z,2.72
2023-04-04T06:37:55.872Z,2.80
2023-04-04T06:42:58.966Z,2.85
2023-04-04T06:48:06.612Z,3.78
2023-04-04T06:53:08.794Z,3.10
2023-04-04T06:58:10.483Z,3.25
2023-04-04T07:03:12.272Z,3.35
2023-04-04T07:08:14.371Z,3.00
2023-04-04T07:13:15.982Z,2.92
2023-04-04T07:18:17.647Z,3.25
2023-04-04T07:23:19.255Z,2.88
2023-04-04T07:28:20.980Z,2.65
2023-04-04T07:33:22.596Z,2.90
2023-04-04T07:38:24.226Z,3.00
2023-04-04T07:43:25.929Z,3.00
2023-04-04T07:48:28.013Z,2.78
2023-04-04T07:53:29.674Z,2.97
2023-04-04T07:58:31.299Z,3.05
2023-04-04T08:03:33.048Z,3.20
2023-04-04T08:08:34.826Z,2.85
2023-04-04T08:13:36.891Z,3.38
2023-04-04T08:18:38.781Z,2.38
2023-04-04T08:23:40.506Z,2.30
2023-04-04T08:28:42.127Z,2.40
2023-04-04T08:33:47.638Z,1.98
2023-04-04T08:38:49.668Z,1.85
2023-04-04T08:43:54.870Z,1.98
2023-04-04T08:48:58.727Z,2.33
2023-04-04T08:54:02.235Z,1.90
2023-04-04T08:59:04.025Z,1.48
2023-04-04T09:04:06.454Z,1.80
2023-04-04T09:09:09.156Z,2.00
2023-04-04T09:14:10.815Z,2.45
2023-04-04T09:19:13.058Z,1.85
2023-04-04T09:24:15.982Z,1.60
2023-04-04T09:29:19.776Z,1.85
2023-04-04T09:34:21.699Z,1.30
2023-04-04T09:39:23.733Z,9.25
2023-04-04T09:44:25.910Z,1.80
2023-04-04T09:49:27.791Z,1.25
2023-04-04T09:54:31.238Z,1.67
2023-04-04T09:59:34.156Z,2.10
2023-04-04T10:04:36.032Z,1.55
2023-04-04T10:09:38.215Z,1.50
2023-04-04T10:14:39.861Z,1.33
2023-04-04T10:19:42.430Z,1.40
2023-04-04T10:24:44.067Z,1.65
2023-04-04T10:29:46.050Z,2.10
2023-04-04T10:35:01.879Z,1.20
2023-04-04T10:40:06.616Z,1.90
2023-04-04T10:45:20.394Z,1.27
2023-04-04T10:50:23.069Z,2.13
2023-04-04T10:55:25.040Z,1.30
2023-04-04T11:00:27.254Z,1.60
2023-04-04T11:05:40.951Z,1.20
2023-04-04T11:10:48.388Z,1.25
2023-04-04T11:15:57.773Z,1.25
2023-04-04T11:21:05.239Z,1.90
2023-04-04T11:26:07.567Z,1.45
2023-04-04T11:31:18.709Z,0.90
2023-04-04T11:36:41.645Z,1.48
2023-04-04T11:42:14.089Z,1.70
2023-04-04T11:47:19.776Z,1.25
2023-04-04T11:52:23.752Z,1.50
2023-04-04T11:57:25.396Z,1.70
2023-04-04T12:02:29.783Z,1.30
2023-04-04T12:07:31.563Z,1.48
2023-04-04T12:12:37.925Z,1.77
2023-04-04T12:17:40.749Z,1.08
2023-04-04T12:22:43.092Z,1.13
2023-04-04T12:27:45.168Z,1.30
2023-04-04T12:32:49.653Z,1.58
2023-04-04T12:38:02.825Z,1.70
2023-04-04T12:43:06.124Z,2.15
2023-04-04T12:48:14.954Z,1.20
2023-04-04T12:53:27.996Z,1.40
2023-04-04T12:58:31.326Z,1.83
2023-04-04T13:03:33.952Z,1.65
2023-04-04T13:08:35.805Z,2.00
2023-04-04T13:13:40.761Z,1.33
2023-04-04T13:18:44.298Z,1.50
2023-04-04T13:23:46.312Z,1.45
2023-04-04T13:28:48.064Z,1.65
2023-04-04T13:33:49.689Z,1.80
2023-04-04T13:38:51.536Z,1.30
2023-04-04T13:43:53.210Z,1.35
2023-04-04T13:48:54.835Z,1.33
2023-04-04T13:53:56.497Z,1.25
2023-04-04T13:58:58.144Z,1.50
2023-04-04T14:04:01.873Z,1.88
2023-04-04T14:09:05.212Z,1.55
2023-04-04T14:14:06.832Z,1.27
2023-04-04T14:19:08.433Z,1.63
2023-04-04T14:24:10.071Z,1.42
2023-04-04T14:29:11.801Z,1.17
2023-04-04T14:34:13.406Z,1.10
2023-04-04T14:39:15.143Z,1.42
2023-04-04T14:44:17.052Z,1.20
2023-04-04T14:49:19.132Z,2.47
2023-04-04T14:54:21.034Z,1.40
2023-04-04T14:59:22.795Z,1.17
2023-04-04T15:04:24.596Z,1.38
2023-04-04T15:09:26.970Z,1.70
2023-04-04T15:14:28.597Z,1.10
2023-04-04T15:19:30.609Z,1.20
2023-04-04T15:24:32.314Z,1.33
2023-04-04T15:29:33.899Z,1.50
2023-04-04T15:34:35.484Z,1.70
2023-04-04T15:39:46.088Z,1.52
2023-04-04T15:44:53.729Z,1.60
2023-04-04T15:49:55.597Z,1.45
2023-04-04T15:54:57.248Z,1.52
2023-04-04T15:59:58.916Z,1.60
2023-04-04T16:05:00.672Z,1.30
2023-04-04T16:10:03.555Z,1.50
2023-04-04T16:15:07.113Z,1.48
2023-04-04T16:20:09.710Z,1.75
2023-04-04T16:25:11.476Z,1.20
2023-04-04T16:30:14.150Z,2.80
2023-04-04T16:35:16.134Z,1.13
2023-04-04T16:40:17.924Z,1.30
2023-04-04T16:45:19.558Z,1.55
2023-04-04T16:50:21.437Z,1.77
2023-04-04T16:55:26.239Z,1.35
2023-04-04T17:00:27.969Z,1.25
2023-04-04T17:05:29.625Z,1.27
2023-04-04T17:10:31.392Z,1.30
2023-04-04T17:15:33.254Z,1.42
2023-04-04T17:20:35.182Z,1.73
2023-04-04T17:25:36.815Z,1.52
2023-04-04T17:30:38.624Z,1.27
2023-04-04T17:35:40.719Z,1.60
2023-04-04T17:40:42.367Z,1.80
2023-04-04T17:45:44.931Z,1.67
2023-04-04T17:50:46.668Z,1.67
2023-04-04T17:55:48.344Z,2.20
2023-04-04T18:00:49.925Z,1.83
2023-04-04T18:05:52.824Z,2.03
2023-04-04T18:10:54.474Z,2.30
2023-04-04T18:15:56.404Z,1.83
2023-04-04T18:20:58.673Z,2.38
2023-04-04T18:26:01.027Z,2.65
2023-04-04T18:31:02.795Z,1.98
2023-04-04T18:36:04.816Z,3.58
2023-04-04T18:41:08.197Z,2.42
2023-04-04T18:46:10.180Z,2.13
2023-04-04T18:51:12.367Z,2.20
2023-04-04T18:56:14.039Z,2.03
2023-04-04T19:01:18.893Z,1.85
2023-04-04T19:06:26.742Z,2.30
2023-04-04T19:11:28.424Z,1.95
2023-04-04T19:16:30.159Z,3.00
2023-04-04T19:21:32.183Z,2.25
2023-04-04T19:26:33.956Z,2.55
2023-04-04T19:31:36.253Z,2.38
2023-04-04T19:36:38.011Z,3.20
2023-04-04T19:41:41.028Z,2.80
2023-04-04T19:46:42.653Z,2.63
2023-04-04T19:51:56.144Z,2.60
2023-04-04T19:57:01.153Z,2.70
2023-04-04T20:02:02.834Z,2.58
2023-04-04T20:07:04.484Z,2.47
2023-04-04T20:12:07.262Z,2.33
2023-04-04T20:17:09.773Z,2.85
2023-04-04T20:22:11.608Z,2.35
2023-04-04T20:27:23.957Z,2.97
2023-04-04T20:32:25.686Z,2.25
2023-04-04T20:37:28.745Z,2.63
2023-04-04T20:42:30.605Z,2.65
2023-04-04T20:47:51.036Z,2.78
2023-04-04T20:52:58.830Z,3.00
2023-04-04T20:58:09.269Z,2.92
2023-04-04T21:03:33.924Z,2.80
2023-04-04T21:08:44.218Z,2.72
2023-04-04T21:13:46.373Z,2.95
2023-04-04T21:18:48.001Z,2.58
2023-04-04T21:23:55.090Z,3.10
2023-04-04T21:28:59.147Z,3.30
2023-04-04T21:34:07.808Z,2.45
2023-04-04T21:39:12.909Z,3.40
2023-04-04T21:44:14.560Z,3.28
2023-04-04T21:49:16.305Z,3.72
2023-04-04T21:54:19.558Z,3.17
2023-04-04T21:59:21.235Z,3.88
2023-04-04T22:04:22.892Z,4.30
2023-04-04T22:09:25.770Z,3.15
2023-04-04T22:14:27.427Z,3.80
2023-04-04T22:19:34.737Z,3.00
2023-04-04T22:24:36.323Z,3.03
2023-04-04T22:29:37.909Z,3.15
2023-04-04T22:34:39.505Z,2.65
2023-04-04T22:39:42.829Z,3.10
2023-04-04T22:44:44.951Z,4.03
2023-04-04T22:49:48.532Z,4.40
2023-04-04T22:54:50.391Z,3.33
2023-04-04T22:59:52.026Z,2.97
2023-04-04T23:04:53.624Z,3.35
2023-04-04T23:09:55.375Z,3.70
2023-04-04T23:15:01.483Z,3.10
2023-04-04T23:20:10.044Z,4.38
2023-04-04T23:25:11.892Z,3.75
2023-04-04T23:30:13.675Z,3.50
2023-04-04T23:35:15.354Z,3.58
2023-04-04T23:40:17.232Z,3.67
2023-04-04T23:45:19.064Z,4.32
2023-04-04T23:50:20.676Z,3.63
2023-04-04T23:55:22.299Z,3.67
